Main page
METAR-TAF:

METAR-TAF

Airports :

Lisbon, Portugal

Lisbon Airport

latitude: 38-46N, longitude: 009-08W, elevation: 114 m

Current weather observation

The report was made 18 minutes ago, at 00:00 UTC
Wind 7 kt from the North
Temperature 11°C
Humidity 54%
Pressure 1020 hPa
Visibility 10 km or more
no clouds below 1500 m and no cumulonimbus

METAR: LPPT 190000Z 36007KT CAVOK 11/02 Q1020

Time: 00:18 (00:18 UTC)

Forecast

The report was made 1 hour and 18 minutes ago, at 23:00 UTC
Forecast valid from 19 at 00 UTC to 20 at 06 UTC
Wind 8 kt from the Northeast
Visibility 10 km or more
no clouds below 1500 m and no cumulonimbus
Becoming
from 19 at 15 UTC to 19 at 17 UTC
Wind 12 kt from the North/Northwest
Becoming
from 20 at 00 UTC to 20 at 02 UTC
Wind 8 kt from the Northeast

TAF: LPPT 182300Z 1900/2006 04008KT CAVOK BECMG 1915/1917 34012KT BECMG 2000/2002 04008KT

Weather observations and forecasts of more than 4000 airports (METAR and TAF reports).

The available stations are represented by yellow and red dots on the map.

Hover mouse over dot to see the name of the station.

Then click to see weather observations and forecasts.

To change the map : click on the green buttons with a black cross to zoom in, on the green button with a dash to zoom out, or on the green arrows for adjacent maps.


METAR-TAF: